Time;durP1;ratioP1;P1;durP2;ratioP2;P2;SDS_P1;SDS_P2;PMS_P1;PMS_P2;Temp;Humidity;BMP_temperature;BMP_pressure;BME280_temperature;BME280_humidity;BME280_pressure;Samples;Min_cycle;Max_cycle;Signal;HPM_P1;HPM_P2
2021/10/08 00:00:18;;;;;;;8.75;3.97;;;12.60;99.90;;;;;;4957139;28;20445;-47
2021/10/08 00:02:44;;;;;;;9.13;4.40;;;12.70;99.90;;;;;;4990518;28;20072;-46
2021/10/08 00:05:10;;;;;;;8.50;4.68;;;12.60;99.90;;;;;;5011870;28;20052;-47
2021/10/08 00:07:36;;;;;;;6.90;3.97;;;12.50;99.90;;;;;;5008220;28;20509;-46
2021/10/08 00:10:04;;;;;;;12.90;4.38;;;12.40;99.90;;;;;;5008971;28;20589;-47
2021/10/08 00:12:30;;;;;;;6.70;3.95;;;12.50;99.90;;;;;;5012196;28;20084;-48
2021/10/08 00:14:56;;;;;;;8.25;4.60;;;12.40;99.90;;;;;;5008779;28;20026;-47
2021/10/08 00:17:21;;;;;;;13.35;4.70;;;12.50;99.90;;;;;;4993824;28;20050;-47
2021/10/08 00:19:47;;;;;;;12.85;4.72;;;12.50;99.90;;;;;;5012634;28;20030;-46
2021/10/08 00:22:13;;;;;;;10.00;4.65;;;12.40;99.90;;;;;;5012613;28;20033;-47
2021/10/08 00:24:38;;;;;;;8.60;4.28;;;12.40;99.90;;;;;;5012649;28;20083;-47
2021/10/08 00:27:04;;;;;;;10.77;4.10;;;12.30;99.90;;;;;;5012609;28;20390;-45
2021/10/08 00:29:30;;;;;;;8.95;3.67;;;12.40;99.90;;;;;;4993930;28;20391;-46
2021/10/08 00:31:56;;;;;;;9.60;4.13;;;12.30;99.90;;;;;;5012589;28;20038;-46
2021/10/08 00:34:21;;;;;;;10.02;4.50;;;12.30;99.90;;;;;;5012478;28;20096;-47
2021/10/08 00:36:47;;;;;;;7.20;4.05;;;12.30;99.90;;;;;;5012515;28;20537;-47
2021/10/08 00:39:13;;;;;;;9.13;4.07;;;12.30;99.90;;;;;;5010174;28;20080;-47
2021/10/08 00:41:39;;;;;;;7.47;3.50;;;12.20;99.90;;;;;;5012235;28;20034;-47
2021/10/08 00:44:05;;;;;;;6.50;3.67;;;12.20;99.90;;;;;;5012391;28;20062;-46
2021/10/08 00:46:31;;;;;;;8.00;3.70;;;12.20;99.90;;;;;;4945000;28;20111;-47
2021/10/08 00:48:56;;;;;;;7.57;3.80;;;12.20;99.90;;;;;;5012427;28;20058;-45
2021/10/08 00:51:24;;;;;;;9.48;3.55;;;12.20;99.90;;;;;;5010231;28;20132;-45
2021/10/08 00:53:50;;;;;;;6.20;3.65;;;12.10;99.90;;;;;;5010306;28;20076;-46
2021/10/08 00:56:17;;;;;;;5.88;3.30;;;12.10;99.90;;;;;;5012038;28;20493;-47
2021/10/08 00:58:43;;;;;;;7.85;3.28;;;12.10;99.90;;;;;;5012373;28;20164;-45
2021/10/08 01:01:13;;;;;;;7.70;3.40;;;12.10;99.90;;;;;;5012311;28;20034;-46
2021/10/08 01:03:39;;;;;;;6.18;3.00;;;12.00;99.90;;;;;;5012275;28;20516;-46
2021/10/08 01:06:05;;;;;;;9.38;3.80;;;11.90;99.90;;;;;;5011587;28;20482;-47
2021/10/08 01:08:31;;;;;;;7.43;3.28;;;12.00;99.90;;;;;;5011927;28;20067;-46
2021/10/08 01:10:57;;;;;;;6.75;3.80;;;12.00;99.90;;;;;;5012754;28;20044;-47
2021/10/08 01:13:23;;;;;;;5.78;3.17;;;11.90;99.90;;;;;;5013779;28;20080;-46
2021/10/08 01:15:53;;;;;;;9.23;3.60;;;11.90;99.90;;;;;;5015912;28;20505;-46
2021/10/08 01:18:19;;;;;;;6.47;3.33;;;11.90;99.90;;;;;;5015755;28;20048;-46
2021/10/08 01:20:44;;;;;;;5.70;2.88;;;11.90;99.90;;;;;;5015605;28;20022;-46
2021/10/08 01:23:10;;;;;;;7.93;3.70;;;11.90;99.90;;;;;;5015772;28;20394;-46
2021/10/08 01:25:36;;;;;;;6.60;3.30;;;11.80;99.90;;;;;;4987236;28;20046;-46
2021/10/08 01:28:04;;;;;;;5.40;3.25;;;11.80;99.90;;;;;;4998490;28;20031;-47
2021/10/08 01:30:30;;;;;;;7.07;3.55;;;11.80;99.90;;;;;;5015479;28;20026;-46
2021/10/08 01:32:56;;;;;;;9.15;3.97;;;11.70;99.90;;;;;;5015710;28;20030;-46
2021/10/08 01:35:22;;;;;;;7.93;3.63;;;11.70;99.90;;;;;;4996806;28;20038;-47
2021/10/08 01:37:48;;;;;;;9.27;5.00;;;11.70;99.90;;;;;;5015567;28;20040;-46
2021/10/08 01:40:15;;;;;;;5.38;3.03;;;11.70;99.90;;;;;;5015477;28;20125;-47
2021/10/08 01:42:41;;;;;;;5.35;3.45;;;11.70;99.90;;;;;;5015355;28;20036;-46
2021/10/08 01:45:09;;;;;;;14.18;5.68;;;11.70;99.90;;;;;;5015567;28;20029;-47
2021/10/08 01:47:35;;;;;;;5.72;3.35;;;11.70;99.90;;;;;;5013519;28;20523;-47
2021/10/08 01:50:01;;;;;;;5.28;3.47;;;11.70;99.90;;;;;;4996878;28;20216;-47
2021/10/08 01:52:26;;;;;;;9.07;3.40;;;11.70;99.90;;;;;;4964353;28;20041;-46
2021/10/08 01:54:52;;;;;;;6.85;3.78;;;11.70;99.90;;;;;;5015299;28;20032;-46
2021/10/08 01:57:18;;;;;;;9.23;3.40;;;11.70;99.90;;;;;;5015113;28;20173;-46
2021/10/08 01:59:44;;;;;;;7.38;3.75;;;11.70;99.90;;;;;;5012822;28;20080;-45
2021/10/08 02:02:10;;;;;;;4.78;3.75;;;11.60;99.90;;;;;;5012939;28;20390;-47
2021/10/08 02:04:35;;;;;;;4.28;3.00;;;11.70;99.90;;;;;;5015007;28;20109;-47
2021/10/08 02:07:01;;;;;;;11.00;3.72;;;11.70;99.90;;;;;;4980228;28;20100;-46
2021/10/08 02:09:27;;;;;;;5.03;3.17;;;11.70;99.90;;;;;;5014944;28;20445;-46
2021/10/08 02:11:53;;;;;;;5.47;3.67;;;11.60;99.90;;;;;;4996565;28;20153;-45
2021/10/08 02:14:19;;;;;;;5.20;3.38;;;11.60;99.90;;;;;;5012548;28;20069;-46
2021/10/08 02:16:45;;;;;;;9.00;4.60;;;11.50;99.90;;;;;;4996189;28;20042;-45
2021/10/08 02:19:11;;;;;;;6.25;3.90;;;11.60;99.90;;;;;;5014854;28;20034;-46
2021/10/08 02:21:37;;;;;;;4.40;2.58;;;11.50;99.90;;;;;;5012179;28;20076;-45
2021/10/08 02:24:03;;;;;;;7.43;3.67;;;11.50;99.90;;;;;;5014752;28;20109;-47
2021/10/08 02:26:29;;;;;;;12.10;4.00;;;11.50;99.90;;;;;;5014436;28;20470;-46
2021/10/08 02:28:54;;;;;;;9.98;5.10;;;11.50;99.90;;;;;;4979786;28;20042;-46
2021/10/08 02:31:20;;;;;;;5.20;3.55;;;11.50;99.90;;;;;;5007878;28;20550;-46
2021/10/08 02:33:46;;;;;;;5.88;3.58;;;11.60;99.90;;;;;;4994397;28;20049;-46
2021/10/08 02:36:13;;;;;;;10.10;3.33;;;11.50;99.90;;;;;;5013572;28;20156;-46
2021/10/08 02:38:39;;;;;;;7.93;4.63;;;11.50;99.90;;;;;;5011903;28;20046;-46
2021/10/08 02:41:06;;;;;;;7.15;4.32;;;11.40;99.90;;;;;;5012197;28;20076;-48
2021/10/08 02:43:32;;;;;;;9.38;4.30;;;11.50;99.90;;;;;;5008795;28;20475;-46
2021/10/08 02:45:58;;;;;;;4.47;2.47;;;11.50;99.90;;;;;;5013267;28;20061;-47
2021/10/08 02:48:24;;;;;;;5.32;3.22;;;11.40;99.90;;;;;;5011629;28;20502;-47
2021/10/08 02:50:50;;;;;;;8.93;4.63;;;11.40;99.90;;;;;;5011000;28;20030;-47
2021/10/08 02:53:16;;;;;;;8.38;3.70;;;11.40;99.90;;;;;;5009136;28;20040;-46
2021/10/08 02:55:42;;;;;;;7.20;3.80;;;11.30;99.90;;;;;;5011577;28;20084;-48
2021/10/08 02:58:08;;;;;;;6.18;4.15;;;11.30;99.90;;;;;;5008580;28;20050;-47
2021/10/08 03:00:34;;;;;;;5.10;3.50;;;11.30;99.90;;;;;;5007849;28;20121;-47
2021/10/08 03:03:00;;;;;;;7.00;3.85;;;11.30;99.90;;;;;;5010812;28;20409;-47
2021/10/08 03:05:26;;;;;;;5.35;3.25;;;11.30;99.90;;;;;;5012345;28;20050;-46
2021/10/08 03:07:52;;;;;;;7.10;3.83;;;11.20;99.90;;;;;;5008734;28;20050;-46
2021/10/08 03:10:19;;;;;;;5.90;3.55;;;11.30;99.90;;;;;;5011476;28;20129;-46
2021/10/08 03:12:48;;;;;;;6.70;3.95;;;11.20;99.90;;;;;;5008125;28;20113;-47
2021/10/08 03:15:15;;;;;;;5.93;3.50;;;11.30;99.90;;;;;;5010579;28;20042;-47
2021/10/08 03:17:41;;;;;;;7.22;3.63;;;11.30;99.90;;;;;;5006577;28;20064;-46
2021/10/08 03:20:09;;;;;;;6.15;3.85;;;11.30;99.90;;;;;;5010974;28;20490;-47
2021/10/08 03:22:36;;;;;;;7.22;5.03;;;11.30;99.90;;;;;;5012987;28;20045;-47
2021/10/08 03:25:02;;;;;;;5.90;3.22;;;11.30;99.90;;;;;;5008343;28;20042;-47
2021/10/08 03:27:28;;;;;;;7.38;3.95;;;11.20;99.90;;;;;;5008619;28;20036;-47
2021/10/08 03:29:54;;;;;;;7.88;2.83;;;11.20;99.90;;;;;;5011429;28;20490;-47
2021/10/08 03:32:20;;;;;;;8.15;4.30;;;11.20;99.90;;;;;;4990923;28;20077;-47
2021/10/08 03:34:46;;;;;;;4.57;3.03;;;11.20;99.90;;;;;;5006902;28;20031;-47
2021/10/08 03:37:15;;;;;;;8.95;4.05;;;11.10;99.90;;;;;;5008384;28;20469;-48
2021/10/08 03:39:44;;;;;;;8.98;3.45;;;11.10;99.90;;;;;;5012539;28;20062;-46
2021/10/08 03:42:13;;;;;;;7.78;3.70;;;11.10;99.90;;;;;;5007377;28;20050;-48
2021/10/08 03:44:39;;;;;;;7.47;3.28;;;11.20;99.90;;;;;;5002722;28;20419;-46
2021/10/08 03:47:14;;;;;;;5.63;3.53;;;11.20;99.90;;;;;;5008616;28;20127;-47
2021/10/08 03:49:42;;;;;;;7.25;3.35;;;11.20;99.90;;;;;;5010332;28;20037;-47
2021/10/08 03:52:09;;;;;;;7.25;3.05;;;11.20;99.90;;;;;;5008141;28;20041;-46
2021/10/08 03:54:35;;;;;;;5.60;3.50;;;11.20;99.90;;;;;;5012422;28;20030;-46
2021/10/08 03:57:01;;;;;;;8.77;4.93;;;11.30;99.90;;;;;;5009630;28;20380;-47
2021/10/08 03:59:26;;;;;;;4.32;2.83;;;11.20;99.90;;;;;;5010760;28;20099;-47
2021/10/08 04:01:55;;;;;;;4.82;3.00;;;11.10;99.90;;;;;;5006726;28;20032;-47
2021/10/08 04:04:21;;;;;;;7.72;3.47;;;11.10;99.90;;;;;;5010127;28;20612;-46
2021/10/08 04:06:48;;;;;;;3.90;2.88;;;11.10;99.90;;;;;;5009625;28;20053;-47
2021/10/08 04:09:15;;;;;;;9.18;4.38;;;11.10;99.90;;;;;;5005369;28;20092;-46
2021/10/08 04:11:41;;;;;;;6.57;4.30;;;11.20;99.90;;;;;;5008911;28;20080;-46
2021/10/08 04:14:08;;;;;;;7.38;4.43;;;11.10;99.90;;;;;;5010119;28;20088;-46
2021/10/08 04:16:36;;;;;;;5.13;3.58;;;11.20;99.90;;;;;;4992767;28;20053;-47
2021/10/08 04:19:03;;;;;;;7.00;3.45;;;11.10;99.90;;;;;;5006870;28;20038;-47
2021/10/08 04:21:29;;;;;;;7.78;4.45;;;11.10;99.90;;;;;;5007426;28;20479;-47
2021/10/08 04:23:55;;;;;;;6.40;2.85;;;11.20;99.90;;;;;;5008753;28;20088;-47
2021/10/08 04:26:20;;;;;;;8.60;4.75;;;11.10;99.90;;;;;;5011824;28;20045;-47
2021/10/08 04:28:46;;;;;;;7.43;4.00;;;11.20;99.90;;;;;;5009968;28;20378;-47
2021/10/08 04:31:12;;;;;;;7.43;4.57;;;11.30;99.90;;;;;;5009838;28;20162;-47
2021/10/08 04:33:38;;;;;;;5.18;3.65;;;11.30;99.90;;;;;;4975337;28;20115;-46
2021/10/08 04:36:04;;;;;;;6.20;3.00;;;11.20;99.90;;;;;;5011697;28;20486;-47
2021/10/08 04:38:31;;;;;;;6.25;3.35;;;11.10;99.90;;;;;;5010181;28;20062;-47
2021/10/08 04:40:58;;;;;;;4.57;2.50;;;11.20;99.90;;;;;;5009703;28;20430;-46
2021/10/08 04:43:24;;;;;;;6.18;3.85;;;11.20;99.90;;;;;;5007054;28;20026;-46
2021/10/08 04:45:50;;;;;;;7.20;3.67;;;11.30;99.90;;;;;;5010712;28;20052;-46
2021/10/08 04:48:15;;;;;;;6.60;3.17;;;11.30;99.90;;;;;;5013609;28;20382;-46
2021/10/08 04:50:41;;;;;;;5.30;1.98;;;11.30;99.90;;;;;;5009400;28;20112;-47
2021/10/08 04:53:18;;;;;;;4.75;3.20;;;11.20;99.90;;;;;;5013634;28;20048;-47
2021/10/08 04:55:45;;;;;;;6.43;3.08;;;11.30;99.90;;;;;;5013694;28;20025;-47
2021/10/08 04:58:12;;;;;;;5.45;3.22;;;11.30;99.90;;;;;;5014551;28;20042;-47
2021/10/08 05:00:38;;;;;;;5.57;3.30;;;11.40;99.90;;;;;;5012299;28;20030;-46
2021/10/08 05:03:12;;;;;;;5.00;2.83;;;11.30;99.90;;;;;;5013446;28;20204;-46
2021/10/08 05:05:38;;;;;;;6.85;3.17;;;11.30;99.90;;;;;;5011849;28;20678;-47
2021/10/08 05:08:04;;;;;;;6.03;3.22;;;11.30;99.90;;;;;;5012815;28;20541;-47
2021/10/08 05:10:31;;;;;;;4.30;3.00;;;11.30;99.90;;;;;;4996177;28;20038;-47
2021/10/08 05:12:57;;;;;;;3.95;2.75;;;11.40;99.90;;;;;;5011387;28;20034;-46
2021/10/08 05:15:24;;;;;;;5.82;3.05;;;11.30;99.90;;;;;;5015248;28;20030;-47
2021/10/08 05:17:49;;;;;;;6.10;3.17;;;11.40;99.90;;;;;;5009546;28;20042;-46
2021/10/08 05:20:15;;;;;;;3.00;1.98;;;11.40;99.90;;;;;;5012961;28;20092;-46
2021/10/08 05:22:41;;;;;;;5.63;2.95;;;11.30;99.90;;;;;;5011397;28;20045;-46
2021/10/08 05:25:07;;;;;;;4.82;2.63;;;11.40;99.90;;;;;;5013000;28;20034;-47
2021/10/08 05:27:33;;;;;;;4.55;2.70;;;11.30;99.90;;;;;;5012013;28;20034;-47
2021/10/08 05:29:58;;;;;;;4.97;2.90;;;11.40;99.90;;;;;;4994587;28;20042;-47
2021/10/08 05:32:24;;;;;;;3.33;1.85;;;11.30;99.90;;;;;;5015680;28;20092;-47
2021/10/08 05:34:50;;;;;;;3.88;2.05;;;11.30;99.90;;;;;;5008943;28;20062;-46
2021/10/08 05:37:16;;;;;;;15.73;8.90;;;11.30;99.90;;;;;;4996998;28;20064;-46
2021/10/08 05:39:42;;;;;;;4.88;2.90;;;11.30;99.90;;;;;;5015487;28;20076;-47
2021/10/08 05:42:07;;;;;;;3.67;2.40;;;11.30;99.90;;;;;;5015422;28;20038;-47
2021/10/08 05:44:33;;;;;;;3.40;2.45;;;11.20;99.90;;;;;;5014651;28;20033;-46
2021/10/08 05:46:59;;;;;;;3.80;2.85;;;11.20;99.90;;;;;;5015414;28;20042;-47
2021/10/08 05:49:25;;;;;;;2.85;1.90;;;11.30;99.90;;;;;;4996854;28;20516;-46
2021/10/08 05:51:50;;;;;;;3.78;2.60;;;11.30;99.90;;;;;;5015403;28;20528;-47
2021/10/08 05:54:16;;;;;;;6.57;3.00;;;11.20;99.90;;;;;;4996858;28;20068;-46
2021/10/08 05:56:42;;;;;;;5.53;2.72;;;11.30;99.90;;;;;;5014120;28;20054;-46
2021/10/08 05:59:08;;;;;;;4.50;2.83;;;11.30;99.90;;;;;;5015176;28;20116;-46
2021/10/08 06:01:33;;;;;;;4.13;2.50;;;11.20;99.90;;;;;;5015049;28;20041;-46
2021/10/08 06:04:05;;;;;;;7.53;2.88;;;11.20;99.90;;;;;;5015234;28;20042;-47
2021/10/08 06:06:31;;;;;;;3.70;2.53;;;11.20;99.90;;;;;;5014962;28;20104;-46
2021/10/08 06:08:57;;;;;;;5.70;2.60;;;11.30;99.90;;;;;;5013093;28;20038;-45
2021/10/08 06:11:22;;;;;;;3.38;2.45;;;11.20;99.90;;;;;;4995378;28;20076;-46
2021/10/08 06:13:48;;;;;;;5.05;2.50;;;11.10;99.90;;;;;;4995264;28;20526;-49
2021/10/08 06:16:14;;;;;;;4.05;2.30;;;11.20;99.90;;;;;;4995246;28;20045;-44
2021/10/08 06:18:40;;;;;;;5.25;2.45;;;11.10;99.90;;;;;;4995257;28;20034;-44
2021/10/08 06:21:05;;;;;;;2.50;1.52;;;11.10;99.90;;;;;;5007884;28;20033;-45
2021/10/08 06:23:31;;;;;;;4.78;2.47;;;11.10;99.90;;;;;;5014539;28;20413;-45
2021/10/08 06:25:57;;;;;;;5.65;2.63;;;11.00;99.90;;;;;;5014758;28;20041;-45
2021/10/08 06:28:23;;;;;;;4.90;3.25;;;11.10;99.90;;;;;;5014672;28;20084;-46
2021/10/08 06:30:48;;;;;;;3.17;2.47;;;11.00;99.90;;;;;;5014610;28;20042;-45
2021/10/08 06:33:14;;;;;;;3.67;2.38;;;11.00;99.90;;;;;;5014833;28;20122;-45
2021/10/08 06:35:41;;;;;;;3.95;3.13;;;11.00;99.90;;;;;;5007622;28;20038;-45
2021/10/08 06:38:07;;;;;;;7.43;3.35;;;11.00;99.90;;;;;;5005676;28;20505;-45
2021/10/08 06:40:33;;;;;;;4.70;3.30;;;11.00;99.90;;;;;;5003170;28;20042;-46
2021/10/08 06:42:58;;;;;;;5.35;3.33;;;11.10;99.90;;;;;;5008796;28;20029;-44
2021/10/08 06:45:25;;;;;;;6.20;3.38;;;11.10;99.90;;;;;;5004819;28;20032;-46
2021/10/08 06:47:52;;;;;;;4.55;3.08;;;11.20;99.90;;;;;;4986837;28;20103;-46
2021/10/08 06:50:18;;;;;;;4.60;3.22;;;11.10;99.90;;;;;;4952952;28;20031;-45
2021/10/08 06:52:44;;;;;;;6.32;3.17;;;11.20;99.90;;;;;;4964550;28;20070;-44
2021/10/08 06:55:10;;;;;;;6.28;3.22;;;11.20;99.90;;;;;;4895900;29;20520;-47
2021/10/08 06:57:36;;;;;;;5.88;3.30;;;11.20;99.90;;;;;;4897212;29;20488;-46
2021/10/08 07:00:04;;;;;;;5.15;3.45;;;11.20;99.90;;;;;;4881234;29;20067;-48
2021/10/08 07:02:30;;;;;;;4.28;2.63;;;11.30;99.90;;;;;;4913783;29;20091;-47
2021/10/08 07:04:57;;;;;;;4.22;3.10;;;11.20;99.90;;;;;;4912618;29;20071;-48
2021/10/08 07:07:22;;;;;;;6.35;3.10;;;11.30;99.90;;;;;;4915194;29;20067;-46
2021/10/08 07:09:48;;;;;;;5.80;3.20;;;11.20;99.90;;;;;;4910089;29;20859;-49
2021/10/08 07:12:14;;;;;;;4.45;3.00;;;11.30;99.90;;;;;;4914207;29;20024;-44
2021/10/08 07:14:40;;;;;;;8.30;3.60;;;11.20;99.90;;;;;;4895989;29;20045;-47
2021/10/08 07:17:05;;;;;;;5.57;3.50;;;11.30;99.90;;;;;;4913316;29;20522;-49
2021/10/08 07:19:31;;;;;;;5.35;3.42;;;11.30;99.90;;;;;;4914562;29;20498;-44
2021/10/08 07:21:57;;;;;;;4.60;2.97;;;11.40;99.90;;;;;;4960560;28;20077;-53
2021/10/08 07:24:23;;;;;;;3.83;3.05;;;11.40;99.90;;;;;;4972030;28;20605;-52
2021/10/08 07:26:49;;;;;;;5.38;3.10;;;11.40;99.90;;;;;;5000745;28;20042;-50
2021/10/08 07:29:15;;;;;;;4.15;2.80;;;11.40;99.90;;;;;;5002631;28;20375;-49
2021/10/08 07:31:42;;;;;;;5.72;3.33;;;11.30;99.90;;;;;;5005476;28;20034;-49
2021/10/08 07:34:08;;;;;;;4.03;3.00;;;11.30;99.90;;;;;;5003576;28;20038;-52
2021/10/08 07:36:35;;;;;;;5.20;3.03;;;11.30;99.90;;;;;;5003257;28;20063;-49
2021/10/08 07:39:00;;;;;;;3.60;2.40;;;11.40;99.90;;;;;;5004936;28;20046;-49
2021/10/08 07:41:26;;;;;;;3.38;2.40;;;11.40;99.90;;;;;;5001767;28;20029;-49
2021/10/08 07:43:52;;;;;;;5.03;2.97;;;11.50;99.90;;;;;;5007861;28;20068;-49
2021/10/08 07:46:18;;;;;;;4.57;3.15;;;11.40;99.90;;;;;;5006226;28;20049;-51
2021/10/08 07:48:44;;;;;;;6.03;4.38;;;11.50;99.90;;;;;;5008762;28;20045;-52
2021/10/08 07:51:10;;;;;;;5.40;3.50;;;11.50;99.90;;;;;;5011329;28;20022;-51
2021/10/08 07:53:36;;;;;;;3.80;2.58;;;11.60;99.90;;;;;;5010332;28;20034;-48
2021/10/08 07:56:01;;;;;;;6.10;3.13;;;11.40;99.90;;;;;;5009312;28;20037;-49
2021/10/08 07:58:27;;;;;;;7.35;3.97;;;11.50;99.90;;;;;;5009199;28;20053;-49
2021/10/08 08:00:58;;;;;;;5.20;3.80;;;11.50;99.90;;;;;;4959683;28;20034;-49
2021/10/08 08:03:24;;;;;;;5.10;4.00;;;11.60;99.90;;;;;;5008493;28;20053;-51
2021/10/08 08:05:50;;;;;;;8.07;3.47;;;11.50;99.90;;;;;;5007865;28;20115;-47
2021/10/08 08:08:16;;;;;;;6.68;3.58;;;11.50;99.90;;;;;;5008968;28;20364;-49
2021/10/08 08:10:43;;;;;;;4.97;3.33;;;11.60;99.90;;;;;;5008241;28;20053;-49
2021/10/08 08:13:10;;;;;;;7.05;3.15;;;11.60;99.90;;;;;;5007838;28;20034;-46
2021/10/08 08:15:36;;;;;;;7.70;4.00;;;11.60;99.90;;;;;;5009235;28;20022;-48
2021/10/08 08:18:02;;;;;;;5.60;3.35;;;11.70;99.90;;;;;;5006944;28;20053;-48
2021/10/08 08:20:28;;;;;;;5.22;3.25;;;11.70;99.90;;;;;;5009155;28;20029;-51
2021/10/08 08:22:53;;;;;;;7.40;3.20;;;11.70;99.90;;;;;;4991444;28;20038;-48
2021/10/08 08:25:19;;;;;;;4.45;3.08;;;11.70;99.90;;;;;;5010611;28;20022;-48
2021/10/08 08:27:45;;;;;;;5.35;3.15;;;11.60;99.90;;;;;;4928307;28;20034;-50
2021/10/08 08:30:11;;;;;;;4.85;4.13;;;11.60;99.90;;;;;;5007775;28;20040;-51
2021/10/08 08:32:37;;;;;;;4.15;2.42;;;11.70;99.90;;;;;;5008871;28;20037;-48
2021/10/08 08:35:04;;;;;;;3.97;3.25;;;11.70;99.90;;;;;;5009242;28;20437;-52
2021/10/08 08:37:30;;;;;;;3.47;2.63;;;11.70;99.90;;;;;;4990044;28;20042;-50
2021/10/08 08:39:56;;;;;;;5.40;3.10;;;11.50;99.90;;;;;;5008432;28;20442;-52
2021/10/08 08:42:22;;;;;;;4.80;3.50;;;11.60;99.90;;;;;;4984916;28;20038;-47
2021/10/08 08:44:49;;;;;;;7.85;3.50;;;11.70;99.90;;;;;;5010325;28;20022;-53
2021/10/08 08:47:20;;;;;;;4.57;3.53;;;11.70;99.90;;;;;;5003901;28;20555;-46
2021/10/08 08:49:47;;;;;;;5.72;2.95;;;11.60;99.90;;;;;;5001145;28;20112;-52
2021/10/08 08:52:13;;;;;;;5.40;4.18;;;11.40;99.90;;;;;;5008810;28;20033;-47
2021/10/08 08:54:41;;;;;;;5.22;3.60;;;11.50;99.90;;;;;;4997781;28;20113;-49
2021/10/08 08:57:15;;;;;;;5.25;3.40;;;11.50;99.90;;;;;;5009239;28;20064;-51
2021/10/08 09:00:12;;;;;;;4.43;3.63;;;11.60;99.90;;;;;;5003287;28;20017;-49
2021/10/08 09:02:40;;;;;;;4.20;3.50;;;11.60;99.90;;;;;;5007569;28;20037;-51
2021/10/08 09:05:22;;;;;;;4.35;3.28;;;11.70;99.90;;;;;;5004609;28;20026;-51
2021/10/08 09:07:48;;;;;;;3.75;2.13;;;11.70;99.90;;;;;;5005269;28;20054;-48
2021/10/08 09:10:16;;;;;;;4.78;3.60;;;11.70;99.90;;;;;;5006899;28;20072;-52
2021/10/08 09:12:44;;;;;;;4.80;3.92;;;11.80;99.90;;;;;;5004912;28;20081;-54
2021/10/08 09:15:11;;;;;;;4.93;3.80;;;11.90;99.90;;;;;;5004663;28;20465;-49
2021/10/08 09:17:37;;;;;;;5.38;2.67;;;11.90;99.90;;;;;;5005588;28;20386;-51
2021/10/08 09:20:08;;;;;;;4.72;3.50;;;11.90;99.90;;;;;;4989335;28;20038;-48
2021/10/08 09:22:38;;;;;;;4.22;3.50;;;12.00;99.90;;;;;;4986710;28;20538;-50
2021/10/08 09:25:19;;;;;;;4.93;3.60;;;12.00;99.90;;;;;;4970376;28;20043;-51
2021/10/08 09:27:47;;;;;;;3.17;2.55;;;12.00;99.90;;;;;;4990011;28;20056;-52
2021/10/08 09:30:13;;;;;;;5.55;3.65;;;11.90;99.90;;;;;;4986617;28;20207;-48
2021/10/08 09:32:46;;;;;;;3.92;2.83;;;12.10;99.90;;;;;;4971893;28;20081;-51
2021/10/08 09:35:18;;;;;;;3.13;2.25;;;12.00;99.90;;;;;;4973243;28;20134;-48
2021/10/08 09:37:52;;;;;;;3.95;2.53;;;11.90;99.90;;;;;;4973556;28;20543;-49
2021/10/08 09:40:27;;;;;;;5.25;4.03;;;11.90;99.90;;;;;;4940684;28;20057;-49
2021/10/08 09:42:59;;;;;;;3.47;2.90;;;12.20;99.90;;;;;;4968254;28;20067;-53
2021/10/08 09:45:44;;;;;;;5.80;3.10;;;12.30;99.90;;;;;;4968845;28;20078;-50
2021/10/08 09:48:11;;;;;;;6.22;3.13;;;12.30;99.90;;;;;;4955497;28;20035;-50
2021/10/08 09:50:38;;;;;;;6.70;3.65;;;12.40;99.90;;;;;;4984789;28;20062;-51
2021/10/08 09:53:12;;;;;;;4.30;3.00;;;12.40;99.90;;;;;;4964184;28;20033;-47
2021/10/08 09:55:42;;;;;;;3.08;2.35;;;12.40;99.90;;;;;;4993261;28;20046;-51
2021/10/08 09:58:09;;;;;;;4.70;2.83;;;12.40;99.90;;;;;;5007626;28;20054;-51
2021/10/08 10:00:43;;;;;;;3.55;2.45;;;12.40;99.90;;;;;;5005986;28;20130;-47
2021/10/08 10:03:12;;;;;;;3.83;3.17;;;12.40;99.90;;;;;;5008735;28;20037;-46
2021/10/08 10:05:38;;;;;;;5.85;2.75;;;12.40;99.90;;;;;;5013963;28;21244;-51
2021/10/08 10:08:05;;;;;;;6.20;3.25;;;12.40;99.90;;;;;;5005880;28;20917;-52
2021/10/08 10:10:31;;;;;;;4.60;3.33;;;12.50;99.90;;;;;;4985176;28;20042;-52
2021/10/08 10:13:00;;;;;;;4.25;3.08;;;12.50;99.90;;;;;;5012703;28;20033;-52
2021/10/08 10:15:27;;;;;;;3.63;2.15;;;12.40;99.90;;;;;;5013353;28;20037;-50
2021/10/08 10:17:53;;;;;;;4.85;2.65;;;12.30;99.90;;;;;;5010773;28;20393;-49
2021/10/08 10:20:18;;;;;;;5.15;3.45;;;12.50;99.90;;;;;;5012803;28;20137;-45
2021/10/08 10:22:47;;;;;;;4.45;3.03;;;12.60;99.90;;;;;;5013760;28;20362;-50
2021/10/08 10:25:14;;;;;;;5.38;3.75;;;12.60;99.90;;;;;;5010269;28;20036;-49
2021/10/08 10:27:41;;;;;;;4.55;3.17;;;12.60;99.90;;;;;;5012716;28;20042;-52
2021/10/08 10:30:09;;;;;;;4.70;3.20;;;12.60;99.90;;;;;;5013286;28;20034;-50
2021/10/08 10:32:36;;;;;;;7.07;3.35;;;12.70;99.90;;;;;;5012387;28;20030;-52
2021/10/08 10:35:03;;;;;;;6.32;3.47;;;12.60;99.90;;;;;;5006946;28;20030;-49
2021/10/08 10:37:38;;;;;;;4.88;3.00;;;12.50;99.90;;;;;;5006595;28;20120;-51
2021/10/08 10:40:22;;;;;;;5.07;2.95;;;12.50;99.90;;;;;;5011969;28;20057;-47
2021/10/08 10:43:33;;;;;;;4.25;3.30;;;12.50;99.90;;;;;;5011409;28;20526;-51
2021/10/08 10:52:01;;;;;;;4.20;2.70;;;12.40;99.90;;;;;;4913788;29;20060;-50
2021/10/08 10:54:43;;;;;;;4.93;2.13;;;12.40;99.90;;;;;;4913690;29;20032;-48
2021/10/08 10:57:32;;;;;;;3.80;2.53;;;12.50;99.90;;;;;;4914749;29;20052;-48
2021/10/08 11:00:19;;;;;;;5.78;2.50;;;12.50;99.90;;;;;;4894163;29;20068;-49
2021/10/08 11:02:46;;;;;;;5.13;2.72;;;12.50;99.90;;;;;;4896234;29;20041;-47
2021/10/08 11:05:20;;;;;;;4.80;2.90;;;12.50;99.90;;;;;;4896119;29;20042;-49
2021/10/08 11:08:12;;;;;;;4.47;3.08;;;12.50;99.90;;;;;;4892670;29;20072;-49
2021/10/08 11:10:44;;;;;;;6.07;3.08;;;12.60;99.90;;;;;;4895358;29;20095;-52
2021/10/08 11:13:30;;;;;;;5.68;3.20;;;12.60;99.90;;;;;;4895777;29;20528;-46
2021/10/08 11:15:59;;;;;;;4.93;3.80;;;12.70;99.90;;;;;;4895974;29;20482;-51
2021/10/08 11:18:43;;;;;;;8.02;3.67;;;12.60;99.90;;;;;;4895830;29;20040;-49
2021/10/08 11:21:27;;;;;;;5.75;2.95;;;12.60;99.90;;;;;;4895916;29;20119;-49
2021/10/08 11:23:58;;;;;;;7.22;3.63;;;12.40;99.90;;;;;;4895795;29;20133;-50
2021/10/08 11:26:24;;;;;;;6.63;4.32;;;12.50;99.90;;;;;;4911948;29;20192;-49
2021/10/08 11:28:50;;;;;;;3.97;3.47;;;12.60;99.90;;;;;;4894098;29;20037;-48
2021/10/08 11:31:19;;;;;;;6.15;3.22;;;12.60;99.90;;;;;;4937805;29;20066;-52
2021/10/08 11:33:53;;;;;;;6.70;3.78;;;12.60;99.90;;;;;;4952561;29;20114;-50
2021/10/08 11:36:26;;;;;;;7.90;4.28;;;12.60;99.90;;;;;;4952590;29;20086;-47
2021/10/08 11:39:17;;;;;;;8.25;3.25;;;12.70;99.90;;;;;;4952405;29;20529;-49
2021/10/08 11:55:10;;;;;;;6.75;3.05;;;14.80;99.90;;;;;;5156910;27;20738;-50
2021/10/08 11:57:50;;;;;;;4.22;2.78;;;13.10;99.90;;;;;;5140176;27;20037;-49
2021/10/08 12:00:16;;;;;;;4.82;2.83;;;13.10;99.90;;;;;;5124032;27;20039;-45
2021/10/08 12:02:58;;;;;;;5.05;2.80;;;13.10;99.90;;;;;;5143976;27;20031;-50
2021/10/08 12:05:25;;;;;;;6.65;2.90;;;13.20;99.90;;;;;;5142222;27;20431;-46
2021/10/08 12:08:01;;;;;;;3.40;1.77;;;13.20;99.90;;;;;;5108782;27;20371;-45
2021/10/08 12:10:27;;;;;;;3.30;2.40;;;13.10;99.90;;;;;;5137591;27;20469;-49
2021/10/08 12:12:56;;;;;;;7.30;3.50;;;13.00;99.90;;;;;;5058692;27;20031;-49
2021/10/08 12:15:34;;;;;;;4.38;3.03;;;13.10;99.90;;;;;;5139119;27;20015;-50
2021/10/08 12:18:02;;;;;;;7.60;4.47;;;13.00;99.90;;;;;;5136387;27;20023;-50
2021/10/08 12:20:33;;;;;;;5.07;3.42;;;13.00;99.90;;;;;;5106160;27;20038;-51
2021/10/08 12:23:23;;;;;;;6.88;3.70;;;13.20;99.90;;;;;;5145884;27;20038;-50
2021/10/08 12:25:52;;;;;;;4.55;3.15;;;13.10;99.90;;;;;;5083912;27;20044;-49
2021/10/08 12:28:23;;;;;;;5.18;3.05;;;13.10;99.90;;;;;;5140180;27;20047;-47
2021/10/08 12:30:55;;;;;;;9.10;4.15;;;12.90;99.90;;;;;;5135302;27;20027;-49
2021/10/08 12:33:24;;;;;;;;;;;12.80;99.90;;;;;;5127056;27;20054;-51
2021/10/08 12:36:18;;;;;;;7.30;4.10;;;12.70;99.90;;;;;;5138680;27;20450;-48
2021/10/08 12:38:59;;;;;;;9.55;5.00;;;12.70;99.90;;;;;;5137866;27;20019;-48
2021/10/08 12:41:30;;;;;;;6.53;3.53;;;12.70;99.90;;;;;;5135733;27;20087;-49
2021/10/08 12:44:20;;;;;;;5.53;3.33;;;12.60;99.90;;;;;;5133871;27;20042;-47
2021/10/08 12:49:46;;;;;;;6.50;3.88;;;12.50;99.90;;;;;;5135386;27;20398;-46
2021/10/08 12:52:12;;;;;;;11.20;4.82;;;12.50;99.90;;;;;;5104838;27;20039;-48
2021/10/08 12:54:38;;;;;;;3.90;3.00;;;12.40;99.90;;;;;;5111317;27;20430;-49
2021/10/08 12:57:11;;;;;;;6.75;3.25;;;12.30;99.90;;;;;;5052141;27;20035;-48
2021/10/08 12:59:46;;;;;;;7.78;3.55;;;12.30;99.90;;;;;;5102358;27;20028;-49
2021/10/08 13:02:11;;;;;;;5.25;3.03;;;12.30;99.90;;;;;;5108051;27;20805;-52
2021/10/08 13:04:40;;;;;;;9.30;4.53;;;12.30;99.90;;;;;;5104278;27;20107;-50
2021/10/08 13:07:18;;;;;;;7.53;3.78;;;12.30;99.90;;;;;;5106412;27;20037;-50
2021/10/08 13:10:19;;;;;;;9.85;5.15;;;12.20;99.90;;;;;;5061143;28;20091;-46
2021/10/08 13:12:45;;;;;;;4.32;2.53;;;12.10;99.90;;;;;;5065660;28;20078;-48